Time;durP1;ratioP1;P1;durP2;ratioP2;P2;SDS_P1;SDS_P2;PMS_P1;PMS_P2;Temp;Humidity;BMP_temperature;BMP_pressure;BME280_temperature;BME280_humidity;BME280_pressure;Samples;Min_cycle;Max_cycle;Signal;HPM_P1;HPM_P2
2022/04/23 00:01:34;;;;;;;;;24.25;22.75;;;;;15.38;49.13;99328.72;5071088;28;46162;-82
2022/04/23 00:03:59;;;;;;;;;23.75;21.50;;;;;15.33;49.19;99325.25;5052066;28;45582;-83
2022/04/23 00:06:25;;;;;;;;;25.25;24.00;;;;;15.37;49.57;99332.28;5072124;27;45413;-83
2022/04/23 00:08:50;;;;;;;;;21.00;20.00;;;;;15.26;49.46;99298.81;5067466;28;45331;-83
2022/04/23 00:11:16;;;;;;;;;25.75;24.75;;;;;15.22;49.37;99300.59;5048254;28;47194;-83
2022/04/23 00:13:41;;;;;;;;;21.00;20.25;;;;;15.38;49.56;99335.78;5048626;28;45465;-83
2022/04/23 00:16:06;;;;;;;;;21.75;20.75;;;;;15.04;49.77;99271.63;5049282;28;45984;-83
2022/04/23 00:18:32;;;;;;;;;23.00;21.50;;;;;15.06;49.82;99280.44;5049969;28;45510;-82
2022/04/23 00:20:57;;;;;;;;;22.50;22.50;;;;;15.01;49.67;99276.94;5048025;28;47198;-83
2022/04/23 00:23:24;;;;;;;;;25.00;24.75;;;;;15.32;49.77;99336.72;5049912;28;45469;-83
2022/04/23 00:25:52;;;;;;;;;23.25;22.50;;;;;15.36;49.71;99335.78;5048928;28;45504;-83
2022/04/23 00:28:18;;;;;;;;;24.00;22.25;;;;;15.04;49.95;99280.44;5049919;28;45507;-83
2022/04/23 00:30:47;;;;;;;;;21.00;21.00;;;;;15.05;49.61;99276.03;5049682;28;46518;-83
2022/04/23 00:33:12;;;;;;;;;26.25;22.75;;;;;15.02;49.74;99270.75;5064574;28;45868;-83
2022/04/23 00:35:38;;;;;;;;;25.00;23.75;;;;;15.02;49.97;99268.09;5048275;28;45525;-82
2022/04/23 00:38:05;;;;;;;;;27.50;26.50;;;;;14.99;49.80;99261.09;5049311;28;45927;-83
2022/04/23 00:40:30;;;;;;;;;22.00;22.00;;;;;15.07;50.08;99267.19;5048323;28;47909;-83
2022/04/23 00:42:58;;;;;;;;;23.75;22.75;;;;;15.33;50.24;99314.66;5049399;28;45764;-82
2022/04/23 00:45:27;;;;;;;;;20.50;20.50;;;;;15.05;50.19;99271.63;5046807;28;45709;-83
2022/04/23 00:47:53;;;;;;;;;24.75;23.75;;;;;15.29;50.19;99304.09;5048423;28;45751;-83
2022/04/23 00:50:21;;;;;;;;;23.25;23.25;;;;;14.97;50.49;99249.63;5049976;28;45897;-83
2022/04/23 00:52:50;;;;;;;;;28.50;24.25;;;;;15.26;49.99;99297.03;5048042;28;45981;-82
2022/04/23 00:55:17;;;;;;;;;24.25;22.75;;;;;15.26;50.26;99293.50;5047690;28;45697;-82
2022/04/23 00:57:43;;;;;;;;;26.50;24.00;;;;;15.07;50.19;99263.66;5049535;28;45395;-82
2022/04/23 01:00:09;;;;;;;;;24.50;23.25;;;;;15.18;50.30;99275.06;5047762;28;46884;-83
2022/04/23 01:02:38;;;;;;;;;25.50;24.25;;;;;14.85;50.23;99220.63;5048769;28;45888;-83
2022/04/23 01:05:09;;;;;;;;;24.50;24.50;;;;;15.07;50.39;99256.59;5046968;28;45429;-83
2022/04/23 01:07:38;;;;;;;;;20.50;20.50;;;;;14.86;50.44;99217.97;5049686;28;45479;-84
2022/04/23 01:10:06;;;;;;;;;26.25;24.00;;;;;14.92;50.62;99230.25;5054182;27;45788;-84
2022/04/23 01:12:35;;;;;;;;;25.00;24.25;;;;;14.96;50.55;99235.50;5077935;27;45921;-84
2022/04/23 01:15:11;;;;;;;;;25.75;25.25;;;;;14.83;50.65;99212.72;5077806;27;45536;-83
2022/04/23 01:17:37;;;;;;;;;29.50;27.75;;;;;14.98;50.60;99243.47;5096456;27;45398;-83
2022/04/23 01:20:13;;;;;;;;;26.00;24.50;;;;;15.18;50.41;99267.13;5084060;27;45856;-83
2022/04/23 01:22:40;;;;;;;;;24.00;22.75;;;;;15.19;50.60;99275.03;5095203;27;45458;-83
2022/04/23 01:25:08;;;;;;;;;26.00;24.50;;;;;14.89;50.79;99228.53;5095929;27;45374;-83
2022/04/23 01:27:37;;;;;;;;;24.25;24.00;;;;;15.17;50.71;99273.28;5096470;27;45581;-84
2022/04/23 01:30:04;;;;;;;;;27.00;26.00;;;;;14.77;50.81;99204.78;5096044;27;46292;-84
2022/04/23 01:32:29;;;;;;;;;26.00;23.25;;;;;14.76;50.72;99204.81;5096527;27;46004;-83
2022/04/23 01:34:55;;;;;;;;;23.75;23.75;;;;;14.76;50.81;99210.97;5076151;27;45727;-82
2022/04/23 01:37:20;;;;;;;;;27.75;26.00;;;;;14.80;50.87;99220.66;5075195;28;45675;-83
2022/04/23 01:39:49;;;;;;;;;25.50;25.00;;;;;14.80;50.73;99220.66;5057270;28;48061;-83
2022/04/23 01:42:19;;;;;;;;;28.75;27.75;;;;;14.74;50.73;99206.59;5076208;28;45932;-83
2022/04/23 01:44:49;;;;;;;;;22.50;21.75;;;;;14.91;50.91;99253.19;5076315;28;45609;-83
2022/04/23 01:47:16;;;;;;;;;24.00;23.00;;;;;15.02;51.01;99268.09;5057244;28;45614;-84
2022/04/23 01:49:42;;;;;;;;;28.25;27.25;;;;;14.99;50.97;99268.16;5060415;28;45509;-83
2022/04/23 01:52:08;;;;;;;;;24.25;24.00;;;;;14.96;51.01;99259.31;5055408;28;45475;-84
2022/04/23 01:54:34;;;;;;;;;31.00;28.00;;;;;14.85;51.38;99247.94;5055295;28;45801;-83
2022/04/23 01:57:01;;;;;;;;;27.75;27.75;;;;;14.93;51.14;99254.06;5036909;28;45740;-83
2022/04/23 01:59:27;;;;;;;;;24.25;24.00;;;;;14.92;51.03;99254.94;5037524;28;47134;-83
2022/04/23 02:01:52;;;;;;;;;28.75;27.00;;;;;14.62;51.33;99203.13;5082725;27;45520;-84
2022/04/23 02:04:18;;;;;;;;;29.00;27.25;;;;;14.45;51.04;99168.84;5075948;27;45541;-83
2022/04/23 02:06:45;;;;;;;;;28.25;27.75;;;;;14.73;51.03;99224.25;5081504;27;45379;-83
2022/04/23 02:09:10;;;;;;;;;29.50;27.50;;;;;14.52;51.37;99190.84;5076130;27;46599;-84
2022/04/23 02:11:35;;;;;;;;;23.50;23.50;;;;;14.61;51.46;99211.97;5096217;27;45601;-83
2022/04/23 02:14:03;;;;;;;;;23.00;22.00;;;;;14.40;51.18;99170.66;5086782;27;45491;-83
2022/04/23 02:16:30;;;;;;;;;29.75;26.25;;;;;14.67;51.45;99221.63;5057105;28;45608;-84
2022/04/23 02:18:57;;;;;;;;;28.25;26.25;;;;;14.57;51.34;99206.69;5081180;27;46261;-83
2022/04/23 02:21:26;;;;;;;;;26.00;26.00;;;;;14.51;51.43;99206.75;5093999;27;45808;-84
2022/04/23 02:23:53;;;;;;;;;25.00;24.25;;;;;14.51;51.68;99204.09;5072866;27;45885;-83
2022/04/23 02:26:20;;;;;;;;;28.25;26.75;;;;;14.29;51.70;99164.56;5092528;27;45793;-83
2022/04/23 02:28:51;;;;;;;;;32.50;29.75;;;;;14.69;51.95;99241.00;5091857;27;46101;-83
2022/04/23 02:31:17;;;;;;;;;25.00;23.75;;;;;14.52;52.35;99211.13;5084555;27;45637;-84
2022/04/23 02:33:44;;;;;;;;;26.50;25.00;;;;;14.37;52.32;99197.09;5072441;28;45657;-83
2022/04/23 02:36:10;;;;;;;;;24.75;23.75;;;;;14.56;52.44;99228.75;5072027;28;45453;-83
2022/04/23 02:38:41;;;;;;;;;27.25;26.50;;;;;14.25;52.12;99185.72;5049559;28;47034;-83
2022/04/23 02:41:08;;;;;;;;;26.50;24.50;;;;;14.38;52.40;99187.38;5051546;28;45898;-84
2022/04/23 02:43:38;;;;;;;;;27.25;24.50;;;;;14.24;52.08;99169.00;5050593;28;45996;-83
2022/04/23 02:46:07;;;;;;;;;31.00;28.25;;;;;14.23;52.15;99171.63;5051354;28;45624;-83
2022/04/23 02:48:32;;;;;;;;;26.75;24.50;;;;;14.37;52.28;99198.84;5057570;28;45919;-83
2022/04/23 02:50:57;;;;;;;;;25.50;25.50;;;;;14.19;52.21;99171.66;5053449;28;45968;-83
2022/04/23 02:53:23;;;;;;;;;27.75;27.25;;;;;14.42;52.28;99203.22;5071845;28;45727;-82
2022/04/23 02:55:48;;;;;;;;;29.75;29.00;;;;;14.27;52.24;99173.38;5071798;27;45495;-84
2022/04/23 02:58:14;;;;;;;;;28.75;28.50;;;;;14.37;52.70;99196.22;5081840;27;46486;-83
2022/04/23 03:00:41;;;;;;;;;28.25;27.25;;;;;14.39;52.25;99192.69;5071252;28;45402;-84
2022/04/23 03:03:07;;;;;;;;;28.25;26.75;;;;;14.46;52.33;99210.25;5083816;27;45438;-83
2022/04/23 03:05:33;;;;;;;;;28.50;27.75;;;;;14.19;52.10;99162.84;5073110;27;45522;-83
2022/04/23 03:08:00;;;;;;;;;25.00;24.75;;;;;14.28;52.15;99172.47;5072242;27;47223;-84
2022/04/23 03:10:26;;;;;;;;;29.00;28.00;;;;;14.33;52.48;99187.41;5069493;28;45933;-83
2022/04/23 03:12:52;;;;;;;;;30.00;28.25;;;;;14.15;52.35;99161.97;5071004;27;45542;-83
2022/04/23 03:15:17;;;;;;;;;27.75;26.75;;;;;14.38;52.44;99203.25;5070854;28;45442;-83
2022/04/23 03:17:44;;;;;;;;;28.50;26.25;;;;;14.07;52.53;99144.41;5052250;28;48145;-84
2022/04/23 03:20:10;;;;;;;;;29.25;27.25;;;;;13.89;52.53;99111.03;5052023;28;45654;-83
2022/04/23 03:22:37;;;;;;;;;34.00;30.75;;;;;14.09;52.60;99155.88;5071964;28;45560;-84
2022/04/23 03:25:03;;;;;;;;;26.00;23.50;;;;;13.81;52.52;99113.72;5070258;28;45515;-84
2022/04/23 03:27:29;;;;;;;;;29.25;28.00;;;;;13.96;52.63;99133.03;5071608;27;45438;-84
2022/04/23 03:29:58;;;;;;;;;27.75;27.25;;;;;14.08;52.59;99154.09;5071123;28;45719;-85
2022/04/23 03:32:24;;;;;;;;;28.25;26.50;;;;;13.90;52.83;99133.94;5053082;28;45423;-84
2022/04/23 03:34:49;;;;;;;;;25.25;25.25;;;;;14.20;52.84;99183.97;5071670;28;45640;-84
2022/04/23 03:37:15;;;;;;;;;26.25;25.50;;;;;14.04;53.06;99160.25;5053396;28;48485;-84
2022/04/23 03:39:40;;;;;;;;;25.25;24.75;;;;;14.18;52.90;99187.50;5070782;28;45508;-83
2022/04/23 03:42:06;;;;;;;;;32.00;28.50;;;;;13.80;52.99;99121.66;5052798;28;45661;-83
2022/04/23 03:44:31;;;;;;;;;29.25;29.00;;;;;13.96;52.93;99157.69;5053452;28;45527;-83
2022/04/23 03:46:57;;;;;;;;;28.75;26.25;;;;;13.77;52.99;99109.34;5070474;28;45852;-83
2022/04/23 03:49:24;;;;;;;;;32.25;29.00;;;;;13.88;53.53;99127.78;5052700;28;46019;-83
2022/04/23 03:51:50;;;;;;;;;28.00;27.00;;;;;13.74;52.89;99104.06;5052856;28;45575;-83
2022/04/23 03:54:16;;;;;;;;;26.75;26.50;;;;;13.93;53.03;99136.53;5069566;27;45490;-83
2022/04/23 03:56:42;;;;;;;;;26.50;25.50;;;;;13.77;52.99;99114.63;5070377;28;45491;-83
2022/04/23 03:59:07;;;;;;;;;32.50;31.00;;;;;13.76;53.09;99112.88;5070023;28;45541;-84
2022/04/23 04:01:33;;;;;;;;;30.50;29.25;;;;;14.06;53.23;99164.66;5070549;28;45557;-84
2022/04/23 04:04:00;;;;;;;;;28.50;25.50;;;;;13.96;53.04;99138.31;5069011;28;45497;-83
2022/04/23 04:06:25;;;;;;;;;26.00;26.00;;;;;13.98;53.08;99145.31;5070626;27;45388;-83
2022/04/23 04:08:51;;;;;;;;;30.50;27.25;;;;;13.82;53.24;99114.59;5068351;28;45687;-83
2022/04/23 04:11:16;;;;;;;;;30.75;26.75;;;;;13.67;53.48;99095.31;5071512;27;45540;-84
2022/04/23 04:13:42;;;;;;;;;27.50;27.25;;;;;13.83;53.56;99124.28;5070502;28;45570;-83
2022/04/23 04:16:07;;;;;;;;;26.00;25.50;;;;;14.02;53.31;99157.63;5069252;28;46430;-84
2022/04/23 04:18:33;;;;;;;;;26.00;24.75;;;;;13.98;53.29;99145.31;5052405;28;45708;-84
2022/04/23 04:20:58;;;;;;;;;28.25;27.00;;;;;13.81;53.48;99115.50;5069678;28;45322;-83
2022/04/23 04:23:26;;;;;;;;;28.50;26.75;;;;;13.72;53.66;99094.41;5061054;28;45669;-82
2022/04/23 04:25:52;;;;;;;;;27.50;27.50;;;;;13.76;53.50;99107.59;5049809;28;45645;-84
2022/04/23 04:28:17;;;;;;;;;27.00;25.25;;;;;13.76;53.45;99104.94;5061743;28;45458;-83
2022/04/23 04:33:27;;;;;;;;;28.00;27.00;;;;;13.74;53.60;99104.06;5070926;28;45521;-84
2022/04/23 04:35:52;;;;;;;;;26.50;25.75;;;;;13.92;53.87;99140.97;5068494;28;47163;-85
2022/04/23 04:38:17;;;;;;;;;25.75;23.50;;;;;13.75;53.74;99113.75;5051342;28;45681;-83
2022/04/23 04:40:44;;;;;;;;;27.00;26.50;;;;;13.77;53.77;99117.25;5051725;28;45649;-83
2022/04/23 04:43:09;;;;;;;;;27.75;25.75;;;;;13.93;53.80;99152.41;5051799;28;45570;-82
2022/04/23 04:45:34;;;;;;;;;23.75;23.25;;;;;13.64;53.74;99097.97;5069162;28;45790;-82
2022/04/23 04:48:00;;;;;;;;;30.00;25.67;;;;;13.57;53.93;99093.59;5069101;27;45483;-82
2022/04/23 04:50:25;;;;;;;;;31.67;28.67;;;;;13.60;53.90;99101.50;5063448;28;45527;-83
2022/04/23 04:52:50;;;;;;;;;32.00;27.75;;;;;13.66;54.06;99116.44;5068798;28;45639;-84
2022/04/23 04:55:16;;;;;;;;;25.75;25.00;;;;;13.55;53.97;99098.00;5069430;28;46302;-83
2022/04/23 04:57:42;;;;;;;;;29.75;28.75;;;;;13.87;54.31;99140.09;5069338;28;45760;-84
2022/04/23 05:00:08;;;;;;;;;30.50;26.00;;;;;13.58;54.01;99083.91;5068769;28;45724;-83
2022/04/23 05:02:33;;;;;;;;;27.50;26.75;;;;;13.56;54.22;99078.66;5070042;27;45461;-83
2022/04/23 05:04:59;;;;;;;;;27.25;26.50;;;;;13.76;54.09;99110.22;5069204;28;45548;-84
2022/04/23 05:07:24;;;;;;;;;28.67;28.67;;;;;13.81;54.10;99111.09;5076984;27;45430;-84
2022/04/23 05:09:50;;;;;;;;;28.25;27.00;;;;;13.74;53.96;99096.13;5069429;28;45784;-83
2022/04/23 05:12:15;;;;;;;;;27.00;25.75;;;;;13.80;54.00;99088.22;5050530;28;45570;-84
2022/04/23 05:14:40;;;;;;;;;27.00;26.75;;;;;13.79;53.92;99089.09;5068723;28;45796;-84
2022/04/23 05:17:05;;;;;;;;;27.00;25.67;;;;;13.80;53.94;99093.50;5069384;28;45513;-84
2022/04/23 05:19:31;;;;;;;;;25.00;23.67;;;;;13.84;53.93;99100.53;5054808;28;45593;-82
2022/04/23 05:21:56;;;;;;;;;29.00;26.33;;;;;13.74;53.78;99068.88;5048680;28;45814;-82
2022/04/23 05:24:24;;;;;;;;;27.33;26.00;;;;;13.73;53.80;99069.75;5047859;28;49782;-84
2022/04/23 05:26:49;;;;;;;;;31.50;27.75;;;;;13.78;53.86;99078.53;5054427;28;45991;-84
2022/04/23 05:29:14;;;;;;;;;34.00;30.50;;;;;13.71;53.67;99069.78;5068508;28;45919;-84
2022/04/23 05:31:40;;;;;;;;;26.33;26.33;;;;;14.10;53.83;99137.34;5069981;28;45413;-84
2022/04/23 05:34:06;;;;;;;;;27.00;26.25;;;;;13.68;53.46;99072.41;5051329;28;48019;-83
2022/04/23 05:36:31;;;;;;;;;31.00;29.00;;;;;13.77;53.70;99093.50;5069679;28;45619;-83
2022/04/23 05:38:56;;;;;;;;;30.75;29.50;;;;;14.05;53.98;99140.91;5051384;28;45434;-84
2022/04/23 05:41:23;;;;;;;;;27.50;26.75;;;;;14.15;54.04;99151.41;5070077;28;45540;-83
2022/04/23 05:43:48;;;;;;;;;28.25;27.75;;;;;13.90;54.17;99105.75;5069187;28;46330;-83
2022/04/23 05:46:16;;;;;;;;;24.50;24.00;;;;;14.12;54.19;99150.53;5066297;27;45549;-84
2022/04/23 05:48:42;;;;;;;;;28.00;27.00;;;;;14.09;53.69;99132.09;5057413;28;45607;-83
2022/04/23 05:51:07;;;;;;;;;30.75;27.00;;;;;14.25;54.15;99152.25;5068082;28;45732;-84
2022/04/23 05:53:33;;;;;;;;;27.25;25.75;;;;;14.10;54.26;99126.78;5068767;28;46458;-83
2022/04/23 05:55:58;;;;;;;;;28.50;26.50;;;;;14.02;54.22;99106.56;5068087;28;45489;-83
2022/04/23 05:58:24;;;;;;;;;25.75;25.00;;;;;14.25;54.14;99143.44;5072448;28;45509;-84
2022/04/23 06:00:51;;;;;;;;;29.00;28.75;;;;;14.09;53.72;99111.81;5053534;28;45395;-84
2022/04/23 06:03:16;;;;;;;;;27.50;26.50;;;;;14.04;53.94;99103.06;5053876;28;46148;-84
2022/04/23 06:05:41;;;;;;;;;32.50;30.75;;;;;14.03;54.13;99103.03;5072250;28;45571;-83
2022/04/23 06:08:07;;;;;;;;;29.00;28.33;;;;;13.96;54.19;99077.56;5072095;28;45701;-84
2022/04/23 06:10:32;;;;;;;;;35.00;30.50;;;;;14.27;54.14;99131.09;5077537;27;45426;-84
2022/04/23 06:12:58;;;;;;;;;28.25;27.75;;;;;14.32;54.31;99129.28;5092233;27;45563;-84
2022/04/23 06:15:23;;;;;;;;;34.25;31.50;;;;;14.41;53.87;99135.38;5092422;27;45434;-84
2022/04/23 06:17:48;;;;;;;;;28.33;27.67;;;;;14.21;53.52;99095.00;5073047;27;45302;-82
2022/04/23 06:20:14;;;;;;;;;32.50;30.00;;;;;14.36;53.73;99115.16;5070865;28;46143;-83
2022/04/23 06:22:39;;;;;;;;;29.00;27.50;;;;;14.43;53.55;99119.50;5071817;28;45454;-83
2022/04/23 06:25:06;;;;;;;;;32.67;31.00;;;;;14.53;53.31;99123.00;5053751;28;45562;-83
2022/04/23 06:27:31;;;;;;;;;35.25;32.50;;;;;14.48;53.36;99123.03;5071781;28;45580;-83
2022/04/23 06:29:57;;;;;;;;;30.25;29.75;;;;;14.31;53.86;99079.97;5053407;28;45348;-83
2022/04/23 06:32:23;;;;;;;;;34.50;33.00;;;;;14.43;53.17;99088.69;5072305;28;45747;-83
2022/04/23 06:34:49;;;;;;;;;33.50;31.50;;;;;14.45;53.40;99099.25;5072041;28;45777;-83
2022/04/23 06:37:18;;;;;;;;;35.25;31.75;;;;;14.56;53.54;99109.78;5072042;28;46070;-83
2022/04/23 06:39:43;;;;;;;;;29.25;28.00;;;;;14.76;53.40;99131.63;5072019;28;45378;-82
2022/04/23 06:42:09;;;;;;;;;33.75;31.25;;;;;14.85;53.21;99143.91;5070119;27;48236;-83
2022/04/23 06:44:35;;;;;;;;;34.00;31.00;;;;;14.60;53.16;99093.88;5082485;27;45358;-83
2022/04/23 06:47:00;;;;;;;;;32.75;30.50;;;;;14.59;53.37;99085.97;5069971;28;45708;-84
2022/04/23 06:49:27;;;;;;;;;29.00;28.50;;;;;14.81;53.34;99107.78;5053651;28;45681;-83
2022/04/23 06:51:54;;;;;;;;;27.75;26.50;;;;;15.05;53.48;99133.16;5068566;28;47090;-83
2022/04/23 06:54:19;;;;;;;;;33.00;31.75;;;;;14.92;53.37;99090.91;5070438;28;45392;-83
2022/04/23 06:56:45;;;;;;;;;35.00;31.00;;;;;15.17;52.75;99122.44;5069398;28;45643;-83
2022/04/23 06:59:10;;;;;;;;;33.75;31.50;;;;;15.24;52.82;99121.50;5070976;28;45518;-83
2022/04/23 07:01:36;;;;;;;;;31.25;30.00;;;;;15.12;52.80;99097.78;5083055;27;45603;-84
2022/04/23 07:04:01;;;;;;;;;38.00;33.50;;;;;15.18;52.44;99081.88;5091363;27;45331;-82
2022/04/23 07:06:27;;;;;;;;;33.00;31.00;;;;;15.30;52.41;99102.91;5089838;27;45601;-84
2022/04/23 07:08:52;;;;;;;;;34.50;29.50;;;;;15.49;52.19;99132.69;5072177;27;45557;-84
2022/04/23 07:11:17;;;;;;;;;33.50;30.50;;;;;15.16;52.49;99065.09;5086781;27;45338;-84
2022/04/23 07:13:43;;;;;;;;;32.75;31.00;;;;;15.20;52.29;99072.13;5070551;28;45394;-84
2022/04/23 07:16:09;;;;;;;;;33.25;31.50;;;;;15.45;52.21;99136.25;5071004;28;45296;-83
2022/04/23 07:18:39;;;;;;;;;31.50;30.75;;;;;15.42;52.60;99131.91;5070877;28;45385;-83
2022/04/23 07:21:04;;;;;;;;;35.25;33.00;;;;;15.15;52.11;99090.69;5070426;28;45600;-84
2022/04/23 07:26:13;;;;;;;;;33.75;32.00;;;;;15.26;53.26;99110.88;5071090;28;45300;-83
2022/04/23 07:28:39;;;;;;;;;33.75;31.00;;;;;15.22;52.41;99094.16;5070717;28;45518;-84
2022/04/23 07:31:05;;;;;;;;;35.00;32.25;;;;;15.44;52.75;99114.22;5052247;28;47309;-84
2022/04/23 07:38:58;;;;;;;;;37.50;34.00;;;;;15.95;52.16;99138.34;5070695;28;45334;-84
2022/04/23 07:41:23;;;;;;;;;33.67;31.67;;;;;15.81;52.45;99091.72;5052841;28;49908;-84
2022/04/23 07:43:49;;;;;;;;;38.00;34.00;;;;;15.96;51.93;99110.97;5070483;28;45919;-84
2022/04/23 07:46:14;;;;;;;;;35.50;32.75;;;;;15.85;51.65;99069.59;5071037;28;46171;-85
2022/04/23 07:48:39;;;;;;;;;37.67;33.67;;;;;16.13;51.84;99105.41;5052458;28;45513;-84
2022/04/23 07:51:05;;;;;;;;;31.75;30.50;;;;;16.15;51.91;99089.47;5070218;28;45322;-84
2022/04/23 07:53:30;;;;;;;;;40.75;34.75;;;;;16.51;51.54;99125.19;5070752;28;45635;-84
2022/04/23 07:55:56;;;;;;;;;37.50;33.50;;;;;16.37;51.29;99096.22;5070027;28;45973;-84
2022/04/23 07:58:21;;;;;;;;;40.00;34.75;;;;;16.35;51.13;99068.84;5052324;28;45667;-83
2022/04/23 08:00:47;;;;;;;;;33.25;31.50;;;;;16.75;50.96;99119.53;5070159;28;46348;-84
2022/04/23 08:03:12;;;;;;;;;36.00;32.33;;;;;16.51;50.86;99067.72;5070198;28;45351;-84
2022/04/23 08:05:38;;;;;;;;;35.25;33.00;;;;;16.65;51.50;99083.41;5051810;28;45506;-83
2022/04/23 08:08:03;;;;;;;;;35.50;30.50;;;;;16.66;50.52;99063.06;5070325;28;45601;-84
2022/04/23 08:10:29;;;;;;;;;38.00;34.00;;;;;16.74;50.74;99067.34;5070507;28;45783;-83
2022/04/23 08:12:55;;;;;;;;;37.00;34.00;;;;;16.94;50.79;99097.97;5069633;28;45546;-84
2022/04/23 08:15:21;;;;;;;;;32.25;30.50;;;;;17.09;50.70;99110.09;5052277;28;45640;-84
2022/04/23 08:17:49;;;;;;;;;35.25;32.25;;;;;16.89;50.24;99052.94;5070417;28;45359;-84
2022/04/23 08:20:15;;;;;;;;;20.00;20.00;;;;;17.00;50.67;99066.03;5050468;28;47176;-83
2022/04/23 08:22:40;;;;;;;;;38.75;34.00;;;;;17.11;50.30;99066.69;5069873;28;45462;-84
2022/04/23 08:25:06;;;;;;;;;33.75;31.50;;;;;17.03;50.46;99048.25;5070175;28;45296;-83
2022/04/23 08:27:48;;;;;;;;;35.00;32.25;;;;;17.42;50.92;99104.16;5070622;28;45596;-84
2022/04/23 08:30:46;;;;;;;;;34.00;32.25;;;;;17.46;50.29;99103.19;5069955;28;45536;-84
2022/04/23 08:33:06;;;;;;;;;36.75;33.25;;;;;17.60;51.06;99102.91;5068338;28;45916;-84
2022/04/23 08:35:33;;;;;;;;;35.75;32.00;;;;;17.33;49.58;99045.91;5070216;28;45548;-84
2022/04/23 08:38:01;;;;;;;;;36.50;33.50;;;;;17.42;49.20;99059.00;5069504;28;45486;-84
2022/04/23 08:40:29;;;;;;;;;35.75;33.00;;;;;17.44;49.85;99067.81;5070253;28;45715;-84
2022/04/23 08:42:55;;;;;;;;;38.25;34.25;;;;;17.72;49.22;99107.97;5069591;28;45828;-83
2022/04/23 08:45:20;;;;;;;;;36.00;32.75;;;;;17.47;49.64;99056.25;5070106;28;45398;-85
2022/04/23 08:47:46;;;;;;;;;35.75;32.75;;;;;17.38;49.39;99048.47;5070232;28;45678;-85
2022/04/23 08:50:13;;;;;;;;;36.00;33.00;;;;;17.64;49.67;99091.31;5049568;28;45479;-84
2022/04/23 08:52:42;;;;;;;;;36.75;31.75;;;;;17.52;49.77;99073.84;5049333;28;45516;-84
2022/04/23 08:55:08;;;;;;;;;34.75;32.25;;;;;17.67;49.53;99101.88;5049336;28;45332;-84
2022/04/23 08:57:36;;;;;;;;;39.75;34.25;;;;;17.49;50.07;99062.44;5048232;28;45563;-83
2022/04/23 09:00:04;;;;;;;;;40.75;35.75;;;;;17.74;49.73;99098.22;5030979;28;47146;-84
2022/04/23 09:02:32;;;;;;;;;39.75;35.50;;;;;17.75;49.92;99085.81;5049738;28;45876;-84
2022/04/23 09:04:57;;;;;;;;;42.00;35.75;;;;;17.77;49.31;99084.88;5048506;28;45517;-84
2022/04/23 09:07:26;;;;;;;;;32.75;30.75;;;;;17.90;49.59;99089.94;5049465;28;45453;-84
2022/04/23 09:09:53;;;;;;;;;37.25;33.25;;;;;17.84;49.48;99074.13;5030816;28;47228;-84
2022/04/23 09:12:24;;;;;;;;;37.50;34.00;;;;;17.93;49.59;99074.81;5030972;28;45870;-84
2022/04/23 09:15:03;;;;;;;;;40.00;35.00;;;;;18.23;49.86;99107.78;5013999;28;45348;-83
2022/04/23 09:25:47;;;;;;;;;31.75;30.25;;;;;18.76;48.80;99096.78;5048487;28;45276;-84
2022/04/23 09:28:13;;;;;;;;;32.25;30.75;;;;;18.58;48.93;99047.56;5049068;28;45460;-84
2022/04/23 09:30:38;;;;;;;;;31.00;30.00;;;;;18.62;48.34;99041.25;5049653;28;45367;-83
2022/04/23 09:33:04;;;;;;;;;34.00;31.75;;;;;18.73;49.07;99043.66;5033853;28;45438;-84
2022/04/23 09:35:29;;;;;;;;;35.25;32.50;;;;;18.80;48.46;99053.22;5034557;28;45568;-83
2022/04/23 09:38:13;;;;;;;;;31.75;30.25;;;;;19.06;48.21;99073.81;5052183;28;45463;-84
2022/04/23 09:40:38;;;;;;;;;34.75;32.00;;;;;19.09;49.18;99065.78;5052321;28;45586;-83
2022/04/23 09:43:10;;;;;;;;;25.00;24.75;;;;;19.16;48.65;99046.06;5033942;28;45989;-84
2022/04/23 09:45:41;;;;;;;;;31.75;30.00;;;;;19.43;48.12;99073.72;5033887;28;45436;-84
2022/04/23 09:48:16;;;;;;;;;31.25;29.75;;;;;19.62;48.67;99083.88;5054144;28;45517;-84
2022/04/23 09:50:44;;;;;;;;;30.75;29.75;;;;;19.26;47.42;99007.59;5054248;28;47920;-84
2022/04/23 09:53:11;;;;;;;;;32.00;31.00;;;;;18.39;47.91;98871.56;5053641;28;45425;-84
2022/04/23 09:55:37;;;;;;;;;28.75;27.00;;;;;19.42;47.60;99040.00;5052989;28;45324;-83
2022/04/23 09:58:08;;;;;;;;;30.50;30.00;;;;;19.54;47.39;99071.59;5070970;28;44896;-83
2022/04/23 10:00:38;;;;;;;;;29.50;29.50;;;;;19.23;48.16;99022.78;5054129;28;48404;-83
2022/04/23 10:03:08;;;;;;;;;28.75;27.00;;;;;19.50;48.71;99072.59;5053489;28;45541;-83
2022/04/23 10:05:52;;;;;;;;;26.75;26.75;;;;;19.16;47.59;99022.09;5072784;28;45614;-84
2022/04/23 10:08:23;;;;;;;;;29.75;28.25;;;;;19.40;48.12;99067.59;5072393;28;45383;-83
2022/04/23 10:11:07;;;;;;;;;31.75;30.50;;;;;19.50;47.59;99080.59;5053368;28;48355;-84
2022/04/23 10:13:34;;;;;;;;;31.75;29.75;;;;;19.32;47.96;99054.50;5054357;28;46409;-83
2022/04/23 10:16:02;;;;;;;;;30.25;28.25;;;;;19.51;48.69;99071.72;5071918;28;45433;-84
2022/04/23 10:18:27;;;;;;;;;28.75;28.75;;;;;19.46;48.88;99057.66;5072709;28;45714;-84
2022/04/23 10:20:57;;;;;;;;;29.50;28.75;;;;;19.67;48.08;99082.81;5071873;28;46862;-83
2022/04/23 10:23:31;;;;;;;;;28.75;28.00;;;;;19.67;48.63;99074.84;5072329;28;45901;-83
2022/04/23 10:26:20;;;;;;;;;25.50;25.50;;;;;19.73;48.14;99073.78;5071394;28;45339;-84
2022/04/23 10:28:46;;;;;;;;;29.00;27.50;;;;;19.75;48.34;99066.59;5072198;28;45661;-83
2022/04/23 10:31:15;;;;;;;;;27.50;26.50;;;;;19.80;47.86;99056.66;5053645;28;47549;-84
2022/04/23 10:33:46;;;;;;;;;29.50;27.50;;;;;20.10;48.45;99069.09;5053491;28;46038;-83
2022/04/23 10:36:13;;;;;;;;;29.25;28.00;;;;;20.09;47.84;99031.78;5071734;28;45617;-83
2022/04/23 10:38:44;;;;;;;;;29.00;26.75;;;;;20.41;47.26;99060.09;5071845;28;45427;-84
2022/04/23 10:41:14;;;;;;;;;26.50;26.00;;;;;20.43;46.86;99047.56;5053238;28;47102;-84
2022/04/23 10:44:00;;;;;;;;;26.50;26.50;;;;;20.53;47.28;99062.38;5070937;28;45489;-83
2022/04/23 10:46:37;;;;;;;;;23.75;23.75;;;;;20.59;47.21;99059.53;5072115;28;45842;-83
2022/04/23 10:49:14;;;;;;;;;23.50;23.00;;;;;20.59;47.88;99048.88;5052907;28;45379;-84
2022/04/23 10:51:47;;;;;;;;;26.00;25.00;;;;;20.34;46.72;98997.16;5071716;28;45903;-83
2022/04/23 10:54:15;;;;;;;;;18.25;18.25;;;;;20.71;46.99;99057.38;5071420;28;45603;-83
2022/04/23 10:56:41;;;;;;;;;17.75;17.00;;;;;20.49;46.54;99026.06;5052920;28;45801;-83
2022/04/23 10:59:38;;;;;;;;;16.75;16.75;;;;;20.64;46.25;99051.38;5071385;28;45426;-84
2022/04/23 11:02:34;;;;;;;;;18.50;17.50;;;;;20.72;46.35;99059.13;5052642;28;47049;-83
2022/04/23 11:13:38;;;;;;;;;15.50;15.50;;;;;21.01;46.30;99050.09;5071159;28;45611;-83
2022/04/23 11:16:16;;;;;;;;;16.00;15.25;;;;;21.15;45.89;99053.16;5071029;28;45675;-83
2022/04/23 11:18:43;;;;;;;;;14.75;14.00;;;;;21.23;45.90;99055.53;5053009;28;45596;-84
2022/04/23 11:21:12;;;;;;;;;16.25;15.00;;;;;21.23;45.68;99055.53;5053014;28;45963;-82
2022/04/23 11:23:42;;;;;;;;;18.25;16.50;;;;;21.25;45.00;99037.69;5052733;28;47388;-83
2022/04/23 11:26:11;;;;;;;;;17.00;16.00;;;;;21.09;45.02;98999.97;5070334;28;45477;-83
2022/04/23 11:28:37;;;;;;;;;15.25;15.00;;;;;21.40;44.61;99050.50;5071509;28;45512;-83
2022/04/23 11:31:15;;;;;;;;;11.00;10.25;;;;;21.18;44.79;99014.75;5071138;28;45560;-83
2022/04/23 11:33:57;;;;;;;;;15.75;14.50;;;;;21.01;44.88;98991.34;5052278;28;46330;-83
2022/04/23 11:36:35;;;;;;;;;13.25;12.00;;;;;21.24;45.51;99043.97;5052704;28;46018;-83
2022/04/23 11:39:10;;;;;;;;;14.00;13.50;;;;;21.08;45.18;99019.56;5070208;28;45694;-83
2022/04/23 11:41:38;;;;;;;;;15.25;13.50;;;;;21.31;45.69;99042.81;5052328;28;45444;-83
2022/04/23 11:44:45;;;;;;;;;13.00;12.25;;;;;21.37;44.83;99018.53;5070252;28;46039;-83
2022/04/23 11:47:12;;;;;;;;;10.75;10.25;;;;;21.62;43.79;99037.19;5070146;28;45399;-83